Terminal Aerodrome Forecast
Issued by NWS

Home | Current Version | Previous Version | Text Only | Print | Product List | Glossary On
Versions: 1 2 3 4 5 6 7 8 9 10 11 12 13 14 15 16 17 18 19 20 21
231
FTUS43 KDTX 130528
TAFDET
TAF
KDET 130528Z 1306/1406 28008KT P6SM SCT050
      TEMPO 1306/1309 -SHSN BKN045
     FM130900 22007KT P6SM BKN035
     FM131500 18007KT 6SM -SN OVC025
     FM131800 14010KT 1SM -SN OVC018
     FM132200 12012KT 1/4SM +SN OVC006
     FM140200 04007KT 2SM -SHSN OVC012=

USA.gov is the U.S. government's official web portal to all federal, state and local government web resources and services.